createdAt,value
2018-05-25T00:00:31.196Z,16.81
2018-05-25T00:01:31.349Z,16.90
2018-05-25T00:02:31.503Z,16.88
2018-05-25T00:03:31.660Z,16.80
2018-05-25T00:04:31.816Z,16.83
2018-05-25T00:05:31.972Z,16.70
2018-05-25T00:06:32.126Z,16.86
2018-05-25T00:07:32.284Z,16.77
2018-05-25T00:08:32.439Z,16.81
2018-05-25T00:09:32.589Z,16.74
2018-05-25T00:10:32.744Z,16.81
2018-05-25T00:11:32.900Z,16.75
2018-05-25T00:12:33.059Z,16.80
2018-05-25T00:13:33.218Z,16.73
2018-05-25T00:14:33.365Z,16.80
2018-05-25T00:15:33.518Z,16.77
2018-05-25T00:16:33.679Z,16.78
2018-05-25T00:17:33.829Z,16.85
2018-05-25T00:18:33.984Z,16.73
2018-05-25T00:19:34.140Z,16.83
2018-05-25T00:20:34.296Z,16.77
2018-05-25T00:21:34.450Z,16.86
2018-05-25T00:22:34.602Z,16.88
2018-05-25T00:23:34.759Z,16.89
2018-05-25T00:24:34.912Z,16.90
2018-05-25T00:25:35.069Z,16.90
2018-05-25T00:26:35.223Z,16.93
2018-05-25T00:27:35.381Z,16.93
2018-05-25T00:28:35.533Z,17.00
2018-05-25T00:29:35.690Z,16.98
2018-05-25T00:30:35.842Z,16.98
2018-05-25T00:31:35.998Z,17.06
2018-05-25T00:32:36.160Z,16.95
2018-05-25T00:33:36.308Z,16.96
2018-05-25T00:34:36.465Z,16.89
2018-05-25T00:35:36.620Z,16.92
2018-05-25T00:36:36.775Z,16.95
2018-05-25T00:37:36.929Z,16.90
2018-05-25T00:38:37.084Z,16.95
2018-05-25T00:39:37.244Z,16.92
2018-05-25T00:40:37.401Z,16.83
2018-05-25T00:41:37.560Z,16.93
2018-05-25T00:42:37.713Z,16.88
2018-05-25T00:43:37.867Z,16.83
2018-05-25T00:44:38.021Z,16.90
2018-05-25T00:45:38.175Z,16.85
2018-05-25T00:46:38.328Z,16.85
2018-05-25T00:47:38.484Z,16.90
2018-05-25T00:48:38.630Z,16.92
2018-05-25T00:49:38.786Z,16.80
2018-05-25T00:50:38.936Z,16.86
2018-05-25T00:51:39.103Z,16.85
2018-05-25T00:52:39.248Z,16.85
2018-05-25T00:53:39.403Z,16.81
2018-05-25T00:54:39.559Z,16.85
2018-05-25T00:55:39.714Z,16.70
2018-05-25T00:56:39.869Z,16.74
2018-05-25T00:57:40.025Z,16.77
2018-05-25T00:58:40.182Z,16.70
2018-05-25T00:59:40.337Z,16.77
2018-05-25T01:00:40.493Z,16.75
2018-05-25T01:01:40.649Z,16.74
2018-05-25T01:02:40.804Z,16.80
2018-05-25T01:03:40.960Z,16.73
2018-05-25T01:04:41.114Z,16.68
2018-05-25T01:05:41.273Z,16.77
2018-05-25T01:06:41.433Z,16.62
2018-05-25T01:07:41.582Z,16.71
2018-05-25T01:08:41.741Z,16.65
2018-05-25T01:09:41.891Z,16.67
2018-05-25T01:10:42.045Z,16.56
2018-05-25T01:11:42.201Z,16.62
2018-05-25T01:12:42.355Z,16.63
2018-05-25T01:13:42.510Z,16.71
2018-05-25T01:14:42.664Z,16.71
2018-05-25T01:15:42.822Z,16.71
2018-05-25T01:16:42.971Z,16.77
2018-05-25T01:17:43.128Z,16.62
2018-05-25T01:18:43.285Z,16.73
2018-05-25T01:19:43.436Z,16.68
2018-05-25T01:20:43.591Z,16.67
2018-05-25T01:21:43.745Z,16.77
2018-05-25T01:22:43.903Z,16.71
2018-05-25T01:23:44.057Z,16.74
2018-05-25T01:24:44.209Z,16.62
2018-05-25T01:25:44.366Z,16.70
2018-05-25T01:26:44.523Z,16.70
2018-05-25T01:27:44.677Z,16.73
2018-05-25T01:28:44.829Z,16.63
2018-05-25T01:29:44.984Z,16.70
2018-05-25T01:30:45.144Z,16.70
2018-05-25T01:31:45.294Z,16.58
2018-05-25T01:32:45.447Z,16.62
2018-05-25T01:33:45.602Z,16.58
2018-05-25T01:34:45.759Z,16.70
2018-05-25T01:35:45.912Z,16.58
2018-05-25T01:36:46.065Z,16.53
2018-05-25T01:37:46.220Z,16.63
2018-05-25T01:38:46.375Z,16.48
2018-05-25T01:39:46.530Z,16.58
2018-05-25T01:40:46.687Z,16.55
2018-05-25T01:41:46.842Z,16.49
2018-05-25T01:42:46.995Z,16.55
2018-05-25T01:43:47.152Z,16.58
2018-05-25T01:44:47.305Z,16.65
2018-05-25T01:45:47.459Z,16.59
2018-05-25T01:46:47.613Z,16.50
2018-05-25T01:47:47.768Z,16.45
2018-05-25T01:48:47.925Z,16.55
2018-05-25T01:49:48.078Z,16.49
2018-05-25T01:50:48.231Z,16.52
2018-05-25T01:51:48.389Z,16.53
2018-05-25T01:52:48.544Z,16.53
2018-05-25T01:53:48.698Z,16.49
2018-05-25T01:54:48.853Z,16.49
2018-05-25T01:55:49.008Z,16.52
2018-05-25T01:56:49.163Z,16.45
2018-05-25T01:57:49.319Z,16.49
2018-05-25T01:58:49.471Z,16.52
2018-05-25T01:59:49.625Z,16.50
2018-05-25T02:00:49.784Z,16.60
2018-05-25T02:01:49.933Z,16.59
2018-05-25T02:02:50.090Z,16.48
2018-05-25T02:03:50.243Z,16.52
2018-05-25T02:04:50.401Z,16.50
2018-05-25T02:05:50.556Z,16.45
2018-05-25T02:06:50.712Z,16.55
2018-05-25T02:07:50.866Z,16.55
2018-05-25T02:08:51.023Z,16.62
2018-05-25T02:09:51.174Z,16.60
2018-05-25T02:10:51.330Z,16.62
2018-05-25T02:11:51.483Z,16.53
2018-05-25T02:12:51.639Z,16.56
2018-05-25T02:13:51.794Z,16.52
2018-05-25T02:14:51.947Z,16.52
2018-05-25T02:15:52.112Z,16.52
2018-05-25T02:16:52.258Z,16.62
2018-05-25T02:17:52.414Z,16.48
2018-05-25T02:18:52.569Z,16.55
2018-05-25T02:19:52.724Z,16.50
2018-05-25T02:20:52.879Z,16.50
2018-05-25T02:21:53.049Z,16.55
2018-05-25T02:22:53.190Z,16.49
2018-05-25T02:23:53.344Z,16.48
2018-05-25T02:24:53.499Z,16.50
2018-05-25T02:25:53.654Z,16.52
2018-05-25T02:26:53.812Z,16.56
2018-05-25T02:27:53.965Z,16.52
2018-05-25T02:28:54.121Z,16.50
2018-05-25T02:29:54.281Z,16.48
2018-05-25T02:30:54.434Z,16.50
2018-05-25T02:31:54.590Z,16.40
2018-05-25T02:32:54.742Z,16.52
2018-05-25T02:33:54.896Z,16.50
2018-05-25T02:34:55.074Z,16.34
2018-05-25T02:35:55.209Z,16.38
2018-05-25T02:36:55.362Z,16.44
2018-05-25T02:37:55.517Z,16.42
2018-05-25T02:38:55.674Z,16.55
2018-05-25T02:39:55.833Z,16.55
2018-05-25T02:40:55.982Z,16.52
2018-05-25T02:41:56.139Z,16.56
2018-05-25T02:42:56.291Z,16.62
2018-05-25T02:43:56.451Z,16.48
2018-05-25T02:44:56.601Z,16.40
2018-05-25T02:45:56.763Z,16.35
2018-05-25T02:46:56.912Z,16.49
2018-05-25T02:47:57.069Z,16.44
2018-05-25T02:48:57.245Z,16.44
2018-05-25T02:49:57.400Z,16.40
2018-05-25T02:50:57.558Z,16.34
2018-05-25T02:51:57.710Z,16.30
2018-05-25T02:52:57.865Z,16.38
2018-05-25T02:53:58.021Z,16.37
2018-05-25T02:54:58.174Z,16.26
2018-05-25T02:55:58.332Z,16.34
2018-05-25T02:56:58.484Z,16.23
2018-05-25T02:57:58.641Z,16.37
2018-05-25T02:58:58.800Z,16.37
2018-05-25T02:59:58.954Z,16.35
2018-05-25T03:00:59.110Z,16.34
2018-05-25T03:01:59.264Z,16.33
2018-05-25T03:02:59.420Z,16.38
2018-05-25T03:03:59.574Z,16.33
2018-05-25T03:04:59.733Z,16.22
2018-05-25T03:05:59.891Z,16.27
2018-05-25T03:07:00.039Z,16.34
2018-05-25T03:08:00.196Z,16.40
2018-05-25T03:09:00.349Z,16.30
2018-05-25T03:10:00.508Z,16.27
2018-05-25T03:11:00.661Z,16.31
2018-05-25T03:12:00.819Z,16.33
2018-05-25T03:13:00.972Z,16.33
2018-05-25T03:14:01.133Z,16.33
2018-05-25T03:15:01.282Z,16.25
2018-05-25T03:16:01.438Z,16.34
2018-05-25T03:17:01.639Z,16.25
2018-05-25T03:18:01.749Z,16.18
2018-05-25T03:19:01.905Z,16.22
2018-05-25T03:20:02.057Z,16.20
2018-05-25T03:21:02.215Z,16.07
2018-05-25T03:22:02.371Z,16.15
2018-05-25T03:23:02.525Z,16.15
2018-05-25T03:24:02.682Z,16.04
2018-05-25T03:25:02.835Z,16.14
2018-05-25T03:26:02.991Z,16.11
2018-05-25T03:27:03.159Z,16.11
2018-05-25T03:28:03.323Z,16.09
2018-05-25T03:29:03.475Z,16.09
2018-05-25T03:30:03.634Z,16.09
2018-05-25T03:31:03.787Z,16.07
2018-05-25T03:32:03.941Z,16.09
2018-05-25T03:33:04.094Z,16.14
2018-05-25T03:34:04.252Z,16.11
2018-05-25T03:35:04.410Z,16.06
2018-05-25T03:36:04.564Z,15.97
2018-05-25T03:37:04.721Z,15.93
2018-05-25T03:38:04.873Z,15.93
2018-05-25T03:39:05.029Z,15.92
2018-05-25T03:40:05.184Z,15.97
2018-05-25T03:41:05.340Z,15.99
2018-05-25T03:42:05.496Z,15.94
2018-05-25T03:43:05.704Z,15.99
2018-05-25T03:44:05.805Z,16.04
2018-05-25T03:45:05.961Z,15.96
2018-05-25T03:46:06.118Z,15.94
2018-05-25T03:47:06.270Z,16.01
2018-05-25T03:48:06.426Z,16.00
2018-05-25T03:49:06.581Z,15.99
2018-05-25T03:50:06.738Z,15.94
2018-05-25T03:51:06.892Z,16.00
2018-05-25T03:52:07.047Z,16.00
2018-05-25T03:53:07.207Z,16.11
2018-05-25T03:54:07.359Z,16.14
2018-05-25T03:55:07.517Z,16.07
2018-05-25T03:56:07.669Z,16.14
2018-05-25T03:57:07.823Z,16.07
2018-05-25T03:58:07.984Z,16.06
2018-05-25T03:59:08.133Z,16.09
2018-05-25T04:00:08.286Z,16.07
2018-05-25T04:01:08.442Z,16.09
2018-05-25T04:02:08.601Z,16.30
2018-05-25T04:03:08.756Z,16.16
2018-05-25T04:04:08.913Z,16.23
2018-05-25T04:05:09.078Z,16.16
2018-05-25T04:06:09.232Z,16.23
2018-05-25T04:07:09.387Z,16.23
2018-05-25T04:08:09.546Z,16.25
2018-05-25T04:09:09.701Z,16.23
2018-05-25T04:10:09.854Z,16.14
2018-05-25T04:11:10.010Z,16.16
2018-05-25T04:12:10.164Z,16.09
2018-05-25T04:13:10.319Z,16.18
2018-05-25T04:14:10.514Z,16.27
2018-05-25T04:15:10.630Z,16.27
2018-05-25T04:16:10.783Z,16.26
2018-05-25T04:17:10.939Z,16.27
2018-05-25T04:18:11.093Z,16.31
2018-05-25T04:19:11.249Z,16.25
2018-05-25T04:20:11.401Z,16.26
2018-05-25T04:21:11.557Z,16.23
2018-05-25T04:22:11.712Z,16.12
2018-05-25T04:23:11.866Z,16.18
2018-05-25T04:24:12.027Z,16.01
2018-05-25T04:25:12.183Z,16.07
2018-05-25T04:26:12.335Z,16.18
2018-05-25T04:27:12.491Z,16.23
2018-05-25T04:28:12.645Z,16.11
2018-05-25T04:29:12.811Z,16.15
2018-05-25T04:30:12.960Z,16.15
2018-05-25T04:31:13.117Z,16.27
2018-05-25T04:32:13.269Z,16.20
2018-05-25T04:33:13.425Z,16.26
2018-05-25T04:34:13.583Z,16.37
2018-05-25T04:35:13.737Z,16.26
2018-05-25T04:36:13.892Z,16.26
2018-05-25T04:37:14.048Z,16.25
2018-05-25T04:38:14.204Z,16.38
2018-05-25T04:39:14.358Z,16.44
2018-05-25T04:40:14.513Z,16.52
2018-05-25T04:41:14.667Z,16.56
2018-05-25T04:42:14.824Z,16.53
2018-05-25T04:43:15.031Z,16.42
2018-05-25T04:44:15.134Z,16.48
2018-05-25T04:45:15.288Z,16.50
2018-05-25T04:46:15.440Z,16.45
2018-05-25T04:47:15.601Z,16.58
2018-05-25T04:48:15.750Z,16.58
2018-05-25T04:49:15.906Z,16.68
2018-05-25T04:50:16.062Z,16.62
2018-05-25T04:51:16.216Z,16.67
2018-05-25T04:52:16.374Z,16.71
2018-05-25T04:53:16.529Z,16.49
2018-05-25T04:54:16.684Z,16.52
2018-05-25T04:55:16.838Z,16.50
2018-05-25T04:56:16.997Z,16.48
2018-05-25T04:57:17.184Z,16.52
2018-05-25T04:58:17.343Z,16.49
2018-05-25T04:59:17.497Z,16.49
2018-05-25T05:00:17.653Z,16.58
2018-05-25T05:01:17.807Z,16.53
2018-05-25T05:02:17.964Z,16.60
2018-05-25T05:03:18.117Z,16.70
2018-05-25T05:04:18.277Z,16.81
2018-05-25T05:05:18.431Z,16.86
2018-05-25T05:06:18.589Z,16.77
2018-05-25T05:07:18.743Z,16.80
2018-05-25T05:08:18.897Z,16.75
2018-05-25T05:09:19.054Z,16.86
2018-05-25T05:10:19.216Z,16.90
2018-05-25T05:11:19.368Z,16.81
2018-05-25T05:12:19.523Z,16.90
2018-05-25T05:13:19.681Z,16.98
2018-05-25T05:14:19.839Z,17.04
2018-05-25T05:15:19.991Z,17.18
2018-05-25T05:16:20.148Z,17.18
2018-05-25T05:17:20.305Z,17.14
2018-05-25T05:18:20.462Z,17.23
2018-05-25T05:19:20.615Z,17.13
2018-05-25T05:20:20.774Z,17.04
2018-05-25T05:21:20.929Z,17.06
2018-05-25T05:22:21.085Z,17.04
2018-05-25T05:23:21.241Z,17.06
2018-05-25T05:24:21.396Z,17.04
2018-05-25T05:25:21.550Z,17.14
2018-05-25T05:26:21.705Z,17.15
2018-05-25T05:27:21.864Z,17.23
2018-05-25T05:28:22.022Z,17.23
2018-05-25T05:29:22.178Z,17.33
2018-05-25T05:30:22.334Z,17.38
2018-05-25T05:31:22.489Z,17.29
2018-05-25T05:32:22.645Z,17.38
2018-05-25T05:33:22.803Z,17.43
2018-05-25T05:34:22.958Z,17.44
2018-05-25T05:35:23.116Z,17.28
2018-05-25T05:36:23.270Z,17.30
2018-05-25T05:37:23.425Z,17.36
2018-05-25T05:38:23.582Z,17.32
2018-05-25T05:39:23.744Z,17.40
2018-05-25T05:40:23.899Z,17.54
2018-05-25T05:41:24.053Z,17.57
2018-05-25T05:42:24.208Z,17.66
2018-05-25T05:43:24.367Z,17.53
2018-05-25T05:44:24.523Z,17.55
2018-05-25T05:45:24.676Z,17.55
2018-05-25T05:46:24.836Z,17.55
2018-05-25T05:47:24.994Z,17.47
2018-05-25T05:48:25.150Z,17.51
2018-05-25T05:49:25.308Z,17.50
2018-05-25T05:50:25.464Z,17.47
2018-05-25T05:51:25.619Z,17.50
2018-05-25T05:52:25.775Z,17.63
2018-05-25T05:53:25.930Z,17.78
2018-05-25T05:54:26.089Z,17.70
2018-05-25T05:55:26.243Z,17.71
2018-05-25T05:56:26.400Z,17.66
2018-05-25T05:57:26.562Z,17.78
2018-05-25T05:58:26.750Z,17.78
2018-05-25T05:59:26.899Z,17.73
2018-05-25T06:00:27.060Z,17.76
2018-05-25T06:01:27.211Z,17.74
2018-05-25T06:02:27.370Z,17.85
2018-05-25T06:03:27.526Z,17.78
2018-05-25T06:04:27.755Z,17.81
2018-05-25T06:05:27.842Z,17.94
2018-05-25T06:06:27.998Z,18.06
2018-05-25T06:07:28.153Z,18.18
2018-05-25T06:08:28.313Z,18.28
2018-05-25T06:09:28.469Z,18.28
2018-05-25T06:10:28.624Z,18.27
2018-05-25T06:11:28.779Z,18.29
2018-05-25T06:12:28.940Z,18.37
2018-05-25T06:13:29.099Z,18.54
2018-05-25T06:14:29.249Z,18.58
2018-05-25T06:15:29.406Z,18.52
2018-05-25T06:16:29.562Z,18.67
2018-05-25T06:17:29.719Z,18.72
2018-05-25T06:18:29.876Z,18.54
2018-05-25T06:19:30.038Z,18.40
2018-05-25T06:20:30.193Z,18.46
2018-05-25T06:21:30.350Z,18.39
2018-05-25T06:22:30.509Z,18.40
2018-05-25T06:23:30.666Z,18.57
2018-05-25T06:24:30.822Z,18.72
2018-05-25T06:25:30.982Z,18.67
2018-05-25T06:26:31.139Z,18.76
2018-05-25T06:27:31.298Z,18.82
2018-05-25T06:28:31.457Z,18.67
2018-05-25T06:29:31.613Z,18.62
2018-05-25T06:30:31.770Z,18.62
2018-05-25T06:31:31.928Z,18.77
2018-05-25T06:32:32.089Z,18.79
2018-05-25T06:33:32.248Z,18.86
2018-05-25T06:34:32.406Z,18.91
2018-05-25T06:35:32.564Z,18.65
2018-05-25T06:36:32.725Z,18.77
2018-05-25T06:37:32.880Z,18.77
2018-05-25T06:38:33.038Z,18.73
2018-05-25T06:39:33.195Z,18.54
2018-05-25T06:40:33.353Z,18.49
2018-05-25T06:41:33.514Z,18.61
2018-05-25T06:42:33.665Z,18.65
2018-05-25T06:43:33.825Z,18.70
2018-05-25T06:44:33.980Z,18.74
2018-05-25T06:45:34.138Z,18.87
2018-05-25T06:46:34.297Z,18.86
2018-05-25T06:47:34.455Z,18.87
2018-05-25T06:48:34.612Z,19.13
2018-05-25T06:49:34.767Z,19.18
2018-05-25T06:50:34.924Z,19.14
2018-05-25T06:51:35.084Z,19.25
2018-05-25T06:52:35.243Z,19.35
2018-05-25T06:53:35.400Z,19.40
2018-05-25T06:54:35.559Z,19.43
2018-05-25T06:55:35.718Z,19.61
2018-05-25T06:56:35.875Z,19.57
2018-05-25T06:57:36.031Z,19.46
2018-05-25T06:58:36.190Z,19.42
2018-05-25T06:59:36.350Z,19.43
2018-05-25T07:00:36.508Z,19.65
2018-05-25T07:01:36.666Z,19.88
2018-05-25T07:02:36.825Z,19.90
2018-05-25T07:03:36.988Z,19.78
2018-05-25T07:04:37.143Z,19.73
2018-05-25T07:05:37.298Z,19.78
2018-05-25T07:06:37.457Z,19.86
2018-05-25T07:07:37.615Z,19.87
2018-05-25T07:08:37.777Z,19.91
2018-05-25T07:09:37.932Z,20.00
2018-05-25T07:10:38.099Z,20.13
2018-05-25T07:11:38.250Z,20.20
2018-05-25T07:12:38.409Z,20.21
2018-05-25T07:13:38.568Z,20.06
2018-05-25T07:14:38.725Z,20.03
2018-05-25T07:15:38.882Z,19.95
2018-05-25T07:16:39.042Z,20.02
2018-05-25T07:17:39.203Z,20.02
2018-05-25T07:18:39.359Z,19.91
2018-05-25T07:19:39.520Z,19.83
2018-05-25T07:20:39.677Z,19.98
2018-05-25T07:21:39.839Z,19.98
2018-05-25T07:22:39.996Z,20.16
2018-05-25T07:23:40.154Z,20.35
2018-05-25T07:24:40.315Z,20.42
2018-05-25T07:25:40.477Z,20.35
2018-05-25T07:26:40.633Z,20.13
2018-05-25T07:27:40.792Z,20.02
2018-05-25T07:28:40.956Z,20.18
2018-05-25T07:29:41.110Z,20.27
2018-05-25T07:30:41.270Z,20.35
2018-05-25T07:31:41.428Z,20.49
2018-05-25T07:32:41.586Z,20.56
2018-05-25T07:33:41.745Z,20.33
2018-05-25T07:34:41.906Z,20.54
2018-05-25T07:35:42.066Z,20.39
2018-05-25T07:36:42.224Z,20.25
2018-05-25T07:37:42.383Z,20.56
2018-05-25T07:38:42.541Z,20.69
2018-05-25T07:39:42.703Z,20.80
2018-05-25T07:40:42.856Z,20.84
2018-05-25T07:41:43.023Z,20.91
2018-05-25T07:42:43.180Z,20.87
2018-05-25T07:43:43.337Z,20.61
2018-05-25T07:44:43.505Z,20.49
2018-05-25T07:45:43.659Z,20.38
2018-05-25T07:46:43.818Z,20.47
2018-05-25T07:47:43.981Z,20.58
2018-05-25T07:48:44.135Z,20.80
2018-05-25T07:49:44.295Z,20.86
2018-05-25T07:50:44.455Z,20.91
2018-05-25T07:51:44.612Z,20.86
2018-05-25T07:52:44.774Z,21.08
2018-05-25T07:53:44.932Z,20.93
2018-05-25T07:54:45.106Z,20.76
2018-05-25T07:55:45.266Z,20.90
2018-05-25T07:56:45.424Z,20.93
2018-05-25T07:57:45.584Z,21.02
2018-05-25T07:58:45.742Z,20.90
2018-05-25T07:59:45.903Z,20.95
2018-05-25T08:00:46.063Z,20.98
2018-05-25T08:01:46.223Z,20.99
2018-05-25T08:02:46.382Z,20.95
2018-05-25T08:03:46.541Z,21.04
2018-05-25T08:04:46.701Z,20.98
2018-05-25T08:05:46.858Z,20.86
2018-05-25T08:06:47.020Z,20.72
2018-05-25T08:07:47.178Z,20.83
2018-05-25T08:08:47.340Z,20.86
2018-05-25T08:09:47.498Z,21.08
2018-05-25T08:10:47.657Z,21.23
2018-05-25T08:11:47.817Z,21.39
2018-05-25T08:12:47.977Z,21.54
2018-05-25T08:13:48.136Z,21.59
2018-05-25T08:14:48.294Z,21.66
2018-05-25T08:15:48.460Z,21.45
2018-05-25T08:16:48.613Z,21.57
2018-05-25T08:17:48.779Z,21.63
2018-05-25T08:18:48.935Z,21.53
2018-05-25T08:19:49.097Z,21.71
2018-05-25T08:20:49.254Z,21.66
2018-05-25T08:21:49.448Z,21.54
2018-05-25T08:22:49.577Z,21.50
2018-05-25T08:23:49.736Z,21.19
2018-05-25T08:24:49.895Z,21.36
2018-05-25T08:25:50.055Z,21.29
2018-05-25T08:26:50.215Z,21.59
2018-05-25T08:27:50.373Z,21.53
2018-05-25T08:28:50.537Z,21.60
2018-05-25T08:29:50.693Z,21.69
2018-05-25T08:30:50.854Z,21.75
2018-05-25T08:31:51.014Z,21.74
2018-05-25T08:32:51.175Z,21.48
2018-05-25T08:33:51.331Z,21.21
2018-05-25T08:34:51.491Z,21.16
2018-05-25T08:35:51.652Z,21.13
2018-05-25T08:36:51.814Z,21.11
2018-05-25T08:37:51.975Z,21.26
2018-05-25T08:38:52.135Z,21.08
2018-05-25T08:39:52.292Z,21.21
2018-05-25T08:40:52.451Z,21.05
2018-05-25T08:41:52.616Z,21.04
2018-05-25T08:42:52.770Z,21.23
2018-05-25T08:43:52.936Z,21.32
2018-05-25T08:44:53.094Z,21.21
2018-05-25T08:45:53.252Z,21.36
2018-05-25T08:46:53.413Z,21.19
2018-05-25T08:47:53.572Z,21.20
2018-05-25T08:48:53.734Z,21.13
2018-05-25T08:49:53.895Z,21.35
2018-05-25T08:50:54.051Z,21.30
2018-05-25T08:51:54.209Z,21.39
2018-05-25T08:52:54.369Z,21.53
2018-05-25T08:53:54.532Z,21.51
2018-05-25T08:54:54.688Z,21.36
2018-05-25T08:55:54.850Z,21.61
2018-05-25T08:56:55.008Z,21.71
2018-05-25T08:57:55.169Z,21.66
2018-05-25T08:58:55.325Z,21.59
2018-05-25T08:59:55.488Z,21.63
2018-05-25T09:00:55.644Z,21.72
2018-05-25T09:01:55.805Z,21.56
2018-05-25T09:02:55.967Z,21.36
2018-05-25T09:03:56.126Z,21.38
2018-05-25T09:04:56.283Z,21.51
2018-05-25T09:05:56.445Z,21.51
2018-05-25T09:06:56.611Z,21.64
2018-05-25T09:07:56.785Z,21.48
2018-05-25T09:08:56.922Z,21.45
2018-05-25T09:09:57.081Z,21.39
2018-05-25T09:10:57.244Z,21.41
2018-05-25T09:11:57.404Z,21.51
2018-05-25T09:12:57.562Z,21.69
2018-05-25T09:13:57.722Z,21.82
2018-05-25T09:14:57.881Z,21.75
2018-05-25T09:15:58.043Z,21.83
2018-05-25T09:16:58.199Z,22.04
2018-05-25T09:17:58.361Z,22.13
2018-05-25T09:18:58.521Z,22.20
2018-05-25T09:19:58.679Z,22.16
2018-05-25T09:20:58.843Z,22.52
2018-05-25T09:21:59.027Z,22.43
2018-05-25T09:22:59.161Z,22.39
2018-05-25T09:23:59.326Z,22.22
2018-05-25T09:24:59.480Z,22.06
2018-05-25T09:25:59.642Z,22.16
2018-05-25T09:26:59.800Z,22.43
2018-05-25T09:27:59.962Z,22.77
2018-05-25T09:29:00.122Z,23.14
2018-05-25T09:30:00.284Z,23.26
2018-05-25T09:31:00.447Z,23.75
2018-05-25T09:32:00.606Z,23.92
2018-05-25T09:33:00.770Z,23.67
2018-05-25T09:34:00.934Z,23.68
2018-05-25T09:35:01.093Z,23.58
2018-05-25T09:36:01.253Z,23.50
2018-05-25T09:37:01.418Z,23.83
2018-05-25T09:38:01.577Z,23.83
2018-05-25T09:39:01.742Z,23.83
2018-05-25T09:40:01.905Z,23.64
2018-05-25T09:41:02.066Z,23.72
2018-05-25T09:42:02.225Z,23.68
2018-05-25T09:43:02.383Z,23.52
2018-05-25T09:44:02.547Z,23.50
2018-05-25T09:45:02.708Z,23.34
2018-05-25T09:46:03.076Z,23.34
2018-05-25T09:47:03.031Z,23.38
2018-05-25T09:48:03.190Z,23.55
2018-05-25T09:49:03.356Z,23.67
2018-05-25T09:50:03.521Z,23.61
2018-05-25T09:51:03.679Z,23.52
2018-05-25T09:52:03.843Z,23.55
2018-05-25T09:53:04.003Z,23.57
2018-05-25T09:54:04.165Z,23.52
2018-05-25T09:55:04.337Z,23.55
2018-05-25T09:56:04.499Z,23.68
2018-05-25T09:57:04.646Z,23.79
2018-05-25T09:58:04.807Z,23.79
2018-05-25T09:59:04.969Z,23.60
2018-05-25T10:00:05.181Z,23.42
2018-05-25T10:01:05.292Z,23.31
2018-05-25T10:02:05.455Z,23.32
2018-05-25T10:03:05.622Z,23.53
2018-05-25T10:04:05.777Z,23.50
2018-05-25T10:05:05.942Z,23.72
2018-05-25T10:06:06.106Z,23.75
2018-05-25T10:07:06.267Z,23.53
2018-05-25T10:08:06.438Z,23.34
2018-05-25T10:09:06.595Z,23.01
2018-05-25T10:10:06.759Z,22.75
2018-05-25T10:11:06.922Z,22.78
2018-05-25T10:12:07.083Z,22.99
2018-05-25T10:13:07.245Z,22.80
2018-05-25T10:14:07.407Z,22.75
2018-05-25T10:15:07.570Z,22.60
2018-05-25T10:16:07.736Z,22.32
2018-05-25T10:17:07.894Z,22.56
2018-05-25T10:18:08.055Z,22.43
2018-05-25T10:19:08.221Z,22.31
2018-05-25T10:20:08.377Z,22.44
2018-05-25T10:21:08.541Z,22.38
2018-05-25T10:22:08.704Z,22.32
2018-05-25T10:23:08.869Z,22.31
2018-05-25T10:24:09.026Z,22.54
2018-05-25T10:25:09.190Z,22.64
2018-05-25T10:26:09.350Z,22.77
2018-05-25T10:27:09.509Z,22.97
2018-05-25T10:28:09.670Z,22.84
2018-05-25T10:29:09.832Z,23.14
2018-05-25T10:30:09.995Z,23.19
2018-05-25T10:31:10.157Z,23.35
2018-05-25T10:32:10.318Z,23.27
2018-05-25T10:33:10.480Z,23.20
2018-05-25T10:34:10.655Z,23.39
2018-05-25T10:35:10.811Z,23.14
2018-05-25T10:36:10.968Z,23.31
2018-05-25T10:37:11.124Z,23.47
2018-05-25T10:38:11.285Z,23.57
2018-05-25T10:39:11.447Z,23.65
2018-05-25T10:40:11.610Z,23.52
2018-05-25T10:41:11.818Z,23.12
2018-05-25T10:42:11.932Z,23.02
2018-05-25T10:43:12.094Z,22.97
2018-05-25T10:44:12.254Z,22.96
2018-05-25T10:45:12.419Z,22.77
2018-05-25T10:46:12.579Z,22.93
2018-05-25T10:47:12.738Z,22.93
2018-05-25T10:48:12.907Z,22.87
2018-05-25T10:49:13.060Z,22.94
2018-05-25T10:50:13.221Z,22.74
2018-05-25T10:51:13.381Z,22.97
2018-05-25T10:52:13.544Z,22.92
2018-05-25T10:53:13.703Z,22.99
2018-05-25T10:54:13.865Z,23.15
2018-05-25T10:55:14.025Z,23.42
2018-05-25T10:56:14.187Z,23.55
2018-05-25T10:57:14.348Z,23.67
2018-05-25T10:58:14.510Z,23.70
2018-05-25T10:59:14.673Z,23.67
2018-05-25T11:00:14.833Z,23.53
2018-05-25T11:01:14.991Z,23.77
2018-05-25T11:02:15.152Z,23.98
2018-05-25T11:03:15.314Z,24.07
2018-05-25T11:04:15.484Z,24.22
2018-05-25T11:05:15.637Z,24.00
2018-05-25T11:06:15.799Z,23.79
2018-05-25T11:07:15.959Z,23.85
2018-05-25T11:08:16.121Z,23.86
2018-05-25T11:09:16.284Z,23.98
2018-05-25T11:10:16.449Z,24.04
2018-05-25T11:11:16.609Z,24.02
2018-05-25T11:12:16.772Z,24.01
2018-05-25T11:13:16.933Z,24.26
2018-05-25T11:14:17.104Z,24.73
2018-05-25T11:15:17.258Z,24.80
2018-05-25T11:16:17.419Z,25.05
2018-05-25T11:17:17.582Z,25.35
2018-05-25T11:18:17.744Z,25.28
2018-05-25T11:19:17.903Z,25.10
2018-05-25T11:20:18.067Z,25.43
2018-05-25T11:21:18.230Z,25.72
2018-05-25T11:22:18.392Z,25.80
2018-05-25T11:23:18.555Z,25.79
2018-05-25T11:24:18.719Z,25.89
2018-05-25T11:25:18.885Z,25.79
2018-05-25T11:26:19.045Z,25.68
2018-05-25T11:27:19.209Z,25.90
2018-05-25T11:28:19.372Z,25.57
2018-05-25T11:29:19.536Z,25.77
2018-05-25T11:30:19.701Z,25.89
2018-05-25T11:31:19.862Z,25.91
2018-05-25T11:32:20.026Z,26.11
2018-05-25T11:33:20.188Z,26.17
2018-05-25T11:34:20.350Z,26.04
2018-05-25T11:35:20.514Z,25.89
2018-05-25T11:36:20.677Z,26.04
2018-05-25T11:37:20.840Z,25.87
2018-05-25T11:38:21.003Z,26.05
2018-05-25T11:39:21.167Z,26.36
2018-05-25T11:40:21.332Z,26.62
2018-05-25T11:41:21.493Z,26.81
2018-05-25T11:42:21.659Z,26.74
2018-05-25T11:43:21.822Z,27.05
2018-05-25T11:44:21.986Z,27.09
2018-05-25T11:45:22.149Z,26.84
2018-05-25T11:46:22.315Z,26.69
2018-05-25T11:47:22.477Z,26.84
2018-05-25T11:48:22.644Z,26.98
2018-05-25T11:49:22.807Z,27.04
2018-05-25T11:50:22.971Z,27.04
2018-05-25T11:51:23.135Z,26.91
2018-05-25T11:52:23.300Z,26.73
2018-05-25T11:53:23.467Z,26.39
2018-05-25T11:54:23.629Z,26.55
2018-05-25T11:55:23.797Z,26.06
2018-05-25T11:56:23.959Z,25.64
2018-05-25T11:57:24.113Z,25.61
2018-05-25T11:58:24.300Z,25.38
2018-05-25T11:59:24.463Z,25.34
2018-05-25T12:00:24.632Z,25.27
2018-05-25T12:01:24.792Z,25.28
2018-05-25T12:02:24.966Z,25.42
2018-05-25T12:03:25.118Z,25.56
2018-05-25T12:04:25.296Z,25.52
2018-05-25T12:05:25.444Z,25.35
2018-05-25T12:06:25.609Z,25.06
2018-05-25T12:07:25.775Z,24.92
2018-05-25T12:08:25.938Z,25.15
2018-05-25T12:09:26.103Z,25.32
2018-05-25T12:10:26.269Z,25.61
2018-05-25T12:11:26.429Z,25.69
2018-05-25T12:12:26.592Z,25.80
2018-05-25T12:13:26.755Z,25.87
2018-05-25T12:14:26.919Z,25.84
2018-05-25T12:15:27.086Z,25.77
2018-05-25T12:16:27.286Z,25.84
2018-05-25T12:17:27.411Z,26.02
2018-05-25T12:18:27.574Z,26.08
2018-05-25T12:19:27.740Z,26.28
2018-05-25T12:20:27.902Z,26.20
2018-05-25T12:21:28.066Z,26.43
2018-05-25T12:22:28.228Z,26.57
2018-05-25T12:23:28.395Z,26.80
2018-05-25T12:24:28.556Z,26.79
2018-05-25T12:25:28.723Z,26.83
2018-05-25T12:26:28.887Z,26.98
2018-05-25T12:27:29.050Z,26.77
2018-05-25T12:28:29.215Z,26.59
2018-05-25T12:29:29.380Z,26.81
2018-05-25T12:30:29.548Z,26.87
2018-05-25T12:31:29.781Z,26.59
2018-05-25T12:32:29.896Z,26.57
2018-05-25T12:33:30.062Z,26.76
2018-05-25T12:34:30.225Z,26.95
2018-05-25T12:35:30.390Z,26.84
2018-05-25T12:36:30.555Z,26.84
2018-05-25T12:37:30.717Z,27.11
2018-05-25T12:38:30.881Z,27.14
2018-05-25T12:39:31.046Z,27.28
2018-05-25T12:40:31.227Z,27.62
2018-05-25T12:41:31.378Z,27.64
2018-05-25T12:42:31.539Z,27.79
2018-05-25T12:43:31.707Z,27.82
2018-05-25T12:44:31.870Z,27.74
2018-05-25T12:45:32.033Z,27.85
2018-05-25T12:46:32.199Z,27.85
2018-05-25T12:47:32.367Z,28.11
2018-05-25T12:48:32.531Z,27.86
2018-05-25T12:49:32.695Z,28.09
2018-05-25T12:50:32.859Z,28.09
2018-05-25T12:51:33.023Z,27.94
2018-05-25T12:52:33.188Z,28.28
2018-05-25T12:53:33.356Z,27.99
2018-05-25T12:54:33.523Z,27.74